This is the latest recevied weather packets stored in our database for station/object DO7CRZ-12. If no packets are shown the sender has not sent any weather packets the latest 10 day(s).
| Time | Temp. | Humidity | Pressure | Rain* | Wind** | Luminosity | Snow |
|---|---|---|---|---|---|---|---|
| 1777582647 | 12.22° C | 47% | 1028.6 hPa | 0 mm | - | 0 W/m² | - |
| 1777582044 | 12.22° C | 47% | 1028.8 hPa | 0 mm | - | 0 W/m² | - |
| 1777581441 | 12.78° C | 45% | 1028.7 hPa | 0 mm | - | 0 W/m² | - |
| 1777580838 | 12.78° C | 45% | 1028.7 hPa | 0 mm | - | 0 W/m² | - |
| 1777580235 | 13.33° C | 45% | 1028.8 hPa | 0 mm | - | 0 W/m² | - |
| 1777579647 | 13.33° C | 45% | 1028.8 hPa | 0 mm | - | 0 W/m² | - |
| 1777579044 | 13.89° C | 44% | 1028.7 hPa | 0 mm | - | 0 W/m² | - |
| 1777577838 | 14.44° C | 40% | 1028.7 hPa | 0 mm | - | 0 W/m² | - |
| 1777577236 | 15° C | 39% | 1028.6 hPa | 0 mm | - | 0 W/m² | - |
| 1777576648 | 15° C | 38% | 1028.5 hPa | 0 mm | - | 0 W/m² | - |
| 1777576045 | 15° C | 37% | 1028.5 hPa | 0 mm | - | 0 W/m² | - |
| 1777574839 | 15.56° C | 36% | 1028.6 hPa | 0 mm | - | 0 W/m² | - |
| 1777574236 | 16.11° C | 34% | 1028.5 hPa | 0 mm | - | 0 W/m² | - |
| 1777573648 | 16.11° C | 33% | 1028.5 hPa | 0 mm | - | 0 W/m² | - |
| 1777573046 | 16.67° C | 33% | 1028.4 hPa | 0 mm | - | 2 W/m² | - |
| 1777572443 | 17.22° C | 31% | 1028.3 hPa | 0 mm | - | 4 W/m² | - |
| 1777571237 | 17.22° C | 31% | 1028.2 hPa | 0 mm | - | 7 W/m² | - |
| 1777570649 | 17.78° C | 28% | 1028.3 hPa | 0 mm | - | 8 W/m² | - |
| 1777570047 | 17.78° C | 28% | 1028.3 hPa | 0 mm | - | 11 W/m² | - |
| 1777569444 | 18.33° C | 26% | 1028.3 hPa | 0 mm | - | 13 W/m² | - |
| 1777568841 | 20° C | 24% | 1028.3 hPa | 0 mm | - | 18 W/m² | - |
| 1777567635 | 24.44° C | 19% | 1028.4 hPa | 0 mm | - | 89 W/m² | - |
| 1777567047 | 25.56° C | 18% | 1028.4 hPa | 0 mm | - | 164 W/m² | - |
| 1777566445 | 24.44° C | 20% | 1028.4 hPa | 0 mm | - | 174 W/m² | - |
| 1777565842 | 24.44° C | 19% | 1028.5 hPa | 0 mm | - | 119 W/m² | - |
* Rain latest hour (hover to see other rain measurements)
** Current wind speed in m/s (hover to see current wind gust speed)